Tropical Cyclones
[Index]
Main Index Home Page Stock Weather Photos Extreme Storms Discussion Storm News and Storm Chasing Reports Tropical Cyclones / Hurricanes / Typhoons Weather Data and Links Wild Fires / Bushfires Weather Observation Techniques Weather Picture Catalogue Tornado Pictures and Reports Stock Video Footage and DVDs for sale
Season 1997-1998 Tropical Cyclone RON Track Map
Season 1997-1998 Summaries: [BoM-AU] [JTWC-AU] [JTWC-SIO] [JTWC-SPAC] [JTWC-SH]
<<- Previous TC | JTWC 1997-1998 Season | Next TC ->>

click for intensity scale information  Lat/long Grid: Show Hide

 Date Labels: Show Hide

Joint Typhoon Warning Centre Cyclone Data

Name: RON

01 Jan 1998 12:00 UTC to 09 Jan 1998 00:00 UTC

    date/time    lat    long     hPa   cat  kts
1998-01-01 12    9.5   166.2W                 25          
1998-01-01 18    9.6   166.6W                 25          
1998-01-02 00    9.6   167.5W                 30          
1998-01-02 06    9.8   168.4W                 30          
1998-01-02 12   10.2   169.3W                 30          
1998-01-02 18   10.5   170.2W                 35          
1998-01-03 00   10.8   171.0W           1     40          
1998-01-03 06   11.1   171.6W           1     50          
1998-01-03 12   11.2   172.2W           2     65          
1998-01-03 18   11.2   172.6W           3     75          
1998-01-04 00   11.2   172.9W           3     85          
1998-01-04 06   11.4   173.3W           3     95          
1998-01-04 12   11.7   173.7W           4    110          
1998-01-04 18   12.0   174.3W           4    120          
1998-01-05 00   12.3   174.9W           5    130          
1998-01-05 06   12.5   175.2W           5    140          
1998-01-05 12   12.9   175.5W           5    145          
1998-01-05 18   13.4   175.7W           5    145          
1998-01-06 00   13.9   175.8W           5    145          
1998-01-06 06   14.4   175.7W           5    145          
1998-01-06 12   15.0   175.5W           5    140          
1998-01-06 18   15.7   175.1W           5    135          
1998-01-07 00   16.5   174.5W           5    125          
1998-01-07 06   17.3   173.8W           4    120          
1998-01-07 12   18.2   173.2W           4    110          
1998-01-07 18   19.4   172.6W           4    105          
1998-01-08 00   20.9   171.9W           3     95          
1998-01-08 06   22.7   171.0W           3     85          
1998-01-08 12   25.0   170.3W           2     70          
1998-01-08 18   27.2   169.3W           1     50          
1998-01-09 00   29.3   168.0W                 30          
Winds are 1-min average.

Tropical cyclone tracks developed by Michael Bath using data from the Joint Typhoon Warning Centre Best Tracks and Google Maps.


[Australian Severe Weather index] [Copyright Notice] [Email Contacts] [Search This Site] [Privacy Policy]
Document: tropical_cyclone_ron.htm Updated: 18 September 2016